Terminal Aerodrome Forecast
Issued by NWS

Home | Current Version | Previous Version | Text Only | Print | Product List | Glossary On
Versions: 1 2 3 4 5 6 7 8 9 10 11 12 13 14 15 16 17 18 19 20 21
513
FTUS46 KLOX 210541
TAFPMD
TAF
KPMD 210541Z 2106/2206 24015KT P6SM SCT060
     FM211900 26012KT P6SM OVC050
     FM212300 25015G25KT P6SM OVC100
     FM220400 26012KT P6SM BKN250=

USA.gov is the U.S. government's official web portal to all federal, state and local government web resources and services.